Jamshedpur, India
Current Conditions -  °F | °C
As of 1:50 PM on Monday 22 Dec 2014 (Local Time) from VECC Reporting Station
Haze Haze  
Wind Chill: 75°   Ceiling: Unl
Heat Index: 75°   Visibility: 2mi
Dew Point: 50°   Wind: 6mph
Humidity: 41%   Direction: 330°NNW
Pressure: 29.88"   Gusts: NA
Location:  22.78°N, 86.21°E
Report Text: VECC 220850Z 33005KT 3200 HZ NSC 24/10 Q1012 NOSIG
Loading
Personal Weather Stations






























Interactive Weather Map New forecast layout! Learn more

10-Day Weather Forecast

Advertisements
Track Severe Weather on mobile